sensor_id;sensor_type;location;lat;lon;timestamp;temperature;humidity
63976;DHT22;50167;47.958;21.780;2022-08-03T00:01:41;24.74;63.14
63976;DHT22;50167;47.958;21.780;2022-08-03T00:04:08;24.85;62.04
63976;DHT22;50167;47.958;21.780;2022-08-03T00:06:35;24.98;62.22
63976;DHT22;50167;47.958;21.780;2022-08-03T00:09:01;25.05;61.37
63976;DHT22;50167;47.958;21.780;2022-08-03T00:11:26;25.09;61.26
63976;DHT22;50167;47.958;21.780;2022-08-03T00:13:52;25.15;60.97
63976;DHT22;50167;47.958;21.780;2022-08-03T00:16:18;25.22;60.80
63976;DHT22;50167;47.958;21.780;2022-08-03T00:18:44;25.35;60.14
63976;DHT22;50167;47.958;21.780;2022-08-03T00:21:10;25.43;59.64
63976;DHT22;50167;47.958;21.780;2022-08-03T00:23:36;25.50;58.27
63976;DHT22;50167;47.958;21.780;2022-08-03T00:26:02;24.80;55.06
63976;DHT22;50167;47.958;21.780;2022-08-03T00:28:28;23.89;55.33
63976;DHT22;50167;47.958;21.780;2022-08-03T00:30:54;23.18;56.27
63976;DHT22;50167;47.958;21.780;2022-08-03T00:33:20;22.61;55.84
63976;DHT22;50167;47.958;21.780;2022-08-03T00:35:47;22.16;56.52
63976;DHT22;50167;47.958;21.780;2022-08-03T00:38:13;21.75;57.78
63976;DHT22;50167;47.958;21.780;2022-08-03T00:40:39;21.47;58.83
63976;DHT22;50167;47.958;21.780;2022-08-03T00:43:06;21.14;59.32
63976;DHT22;50167;47.958;21.780;2022-08-03T00:45:34;20.87;59.29
63976;DHT22;50167;47.958;21.780;2022-08-03T00:48:01;20.62;59.10
63976;DHT22;50167;47.958;21.780;2022-08-03T00:50:29;20.38;60.03
63976;DHT22;50167;47.958;21.780;2022-08-03T00:52:57;20.15;60.39
63976;DHT22;50167;47.958;21.780;2022-08-03T00:55:23;19.96;60.84
63976;DHT22;50167;47.958;21.780;2022-08-03T00:57:50;19.76;61.26
63976;DHT22;50167;47.958;21.780;2022-08-03T01:00:18;19.56;61.62
63976;DHT22;50167;47.958;21.780;2022-08-03T01:02:45;19.44;61.97
63976;DHT22;50167;47.958;21.780;2022-08-03T01:05:11;19.36;64.46
63976;DHT22;50167;47.958;21.780;2022-08-03T01:08:00;20.75;76.38
63976;DHT22;50167;47.958;21.780;2022-08-03T01:16:11;23.33;69.56
63976;DHT22;50167;47.958;21.780;2022-08-03T01:21:33;24.06;65.88
63976;DHT22;50167;47.958;21.780;2022-08-03T01:26:54;24.60;63.26
63976;DHT22;50167;47.958;21.780;2022-08-03T01:32:33;25.08;61.23
63976;DHT22;50167;47.958;21.780;2022-08-03T01:35:01;25.19;60.37
63976;DHT22;50167;47.958;21.780;2022-08-03T01:37:37;25.32;59.61
63976;DHT22;50167;47.958;21.780;2022-08-03T01:40:00;25.45;59.35
63976;DHT22;50167;47.958;21.780;2022-08-03T01:42:28;24.92;55.86
63976;DHT22;50167;47.958;21.780;2022-08-03T01:44:55;23.96;55.54
63976;DHT22;50167;47.958;21.780;2022-08-03T01:47:22;23.13;55.77
63976;DHT22;50167;47.958;21.780;2022-08-03T01:49:49;22.45;56.31
63976;DHT22;50167;47.958;21.780;2022-08-03T01:52:18;21.88;55.73
63976;DHT22;50167;47.958;21.780;2022-08-03T01:54:47;21.37;56.61
63976;DHT22;50167;47.958;21.780;2022-08-03T01:57:13;20.97;59.37
63976;DHT22;50167;47.958;21.780;2022-08-03T01:59:39;20.66;60.15
63976;DHT22;50167;47.958;21.780;2022-08-03T02:02:06;20.35;59.65
63976;DHT22;50167;47.958;21.780;2022-08-03T02:04:33;20.07;59.49
63976;DHT22;50167;47.958;21.780;2022-08-03T02:06:59;19.83;60.84
63976;DHT22;50167;47.958;21.780;2022-08-03T02:09:26;19.60;61.37
63976;DHT22;50167;47.958;21.780;2022-08-03T02:11:53;19.38;61.98
63976;DHT22;50167;47.958;21.780;2022-08-03T02:14:20;19.19;61.73
63976;DHT22;50167;47.958;21.780;2022-08-03T02:16:47;19.18;65.44
63976;DHT22;50167;47.958;21.780;2022-08-03T02:19:13;20.56;76.70
63976;DHT22;50167;47.958;21.780;2022-08-03T02:21:40;21.62;76.37
63976;DHT22;50167;47.958;21.780;2022-08-03T02:24:08;22.30;73.35
63976;DHT22;50167;47.958;21.780;2022-08-03T02:26:34;22.78;71.31
63976;DHT22;50167;47.958;21.780;2022-08-03T02:29:04;23.15;69.65
63976;DHT22;50167;47.958;21.780;2022-08-03T02:31:32;23.44;67.85
63976;DHT22;50167;47.958;21.780;2022-08-03T02:34:01;23.73;66.01
63976;DHT22;50167;47.958;21.780;2022-08-03T02:36:29;24.01;64.71
63976;DHT22;50167;47.958;21.780;2022-08-03T02:38:58;24.25;64.25
63976;DHT22;50167;47.958;21.780;2022-08-03T02:41:34;24.42;63.65
63976;DHT22;50167;47.958;21.780;2022-08-03T02:43:57;24.52;62.71
63976;DHT22;50167;47.958;21.780;2022-08-03T02:46:27;24.60;62.39
63976;DHT22;50167;47.958;21.780;2022-08-03T02:48:54;24.66;62.28
63976;DHT22;50167;47.958;21.780;2022-08-03T02:51:20;24.70;62.02
63976;DHT22;50167;47.958;21.780;2022-08-03T02:53:47;24.81;61.52
63976;DHT22;50167;47.958;21.780;2022-08-03T02:56:13;24.90;60.23
63976;DHT22;50167;47.958;21.780;2022-08-03T02:58:42;25.00;59.05
63976;DHT22;50167;47.958;21.780;2022-08-03T03:01:09;24.26;55.83
63976;DHT22;50167;47.958;21.780;2022-08-03T03:03:35;23.25;55.92
63976;DHT22;50167;47.958;21.780;2022-08-03T03:06:02;22.41;55.36
63976;DHT22;50167;47.958;21.780;2022-08-03T03:08:28;21.72;55.30
63976;DHT22;50167;47.958;21.780;2022-08-03T03:10:57;21.21;56.15
63976;DHT22;50167;47.958;21.780;2022-08-03T03:13:24;20.76;57.21
63976;DHT22;50167;47.958;21.780;2022-08-03T03:15:50;20.42;58.41
63976;DHT22;50167;47.958;21.780;2022-08-03T03:18:16;20.13;58.58
63976;DHT22;50167;47.958;21.780;2022-08-03T03:20:43;19.87;58.89
63976;DHT22;50167;47.958;21.780;2022-08-03T03:23:10;19.56;59.60
63976;DHT22;50167;47.958;21.780;2022-08-03T03:25:36;19.34;60.35
63976;DHT22;50167;47.958;21.780;2022-08-03T03:28:03;19.15;62.19
63976;DHT22;50167;47.958;21.780;2022-08-03T03:30:29;19.52;70.44
63976;DHT22;50167;47.958;21.780;2022-08-03T03:32:57;21.01;76.07
63976;DHT22;50167;47.958;21.780;2022-08-03T03:35:22;21.92;74.92
63976;DHT22;50167;47.958;21.780;2022-08-03T03:37:49;22.50;73.07
63976;DHT22;50167;47.958;21.780;2022-08-03T03:40:15;22.93;70.65
63976;DHT22;50167;47.958;21.780;2022-08-03T03:42:41;23.25;69.07
63976;DHT22;50167;47.958;21.780;2022-08-03T03:45:07;23.54;67.74
63976;DHT22;50167;47.958;21.780;2022-08-03T03:47:34;23.73;66.85
63976;DHT22;50167;47.958;21.780;2022-08-03T03:50:04;23.94;66.23
63976;DHT22;50167;47.958;21.780;2022-08-03T03:52:31;24.01;66.11
63976;DHT22;50167;47.958;21.780;2022-08-03T03:54:57;24.17;65.22
63976;DHT22;50167;47.958;21.780;2022-08-03T03:57:23;24.35;64.30
63976;DHT22;50167;47.958;21.780;2022-08-03T03:59:49;24.49;63.82
63976;DHT22;50167;47.958;21.780;2022-08-03T04:02:15;24.66;63.13
63976;DHT22;50167;47.958;21.780;2022-08-03T04:04:41;24.81;62.75
63976;DHT22;50167;47.958;21.780;2022-08-03T04:07:26;24.87;62.45
63976;DHT22;50167;47.958;21.780;2022-08-03T04:10:19;24.92;62.07
63976;DHT22;50167;47.958;21.780;2022-08-03T04:13:07;24.95;61.54
63976;DHT22;50167;47.958;21.780;2022-08-03T04:15:34;25.08;61.16
63976;DHT22;50167;47.958;21.780;2022-08-03T04:18:02;25.18;60.63
63976;DHT22;50167;47.958;21.780;2022-08-03T04:20:30;25.22;60.35
63976;DHT22;50167;47.958;21.780;2022-08-03T04:22:57;25.25;60.27
63976;DHT22;50167;47.958;21.780;2022-08-03T04:25:30;25.26;60.11
63976;DHT22;50167;47.958;21.780;2022-08-03T04:27:57;25.22;60.23
63976;DHT22;50167;47.958;21.780;2022-08-03T04:30:28;25.25;60.31
63976;DHT22;50167;47.958;21.780;2022-08-03T04:32:55;25.32;60.25
63976;DHT22;50167;47.958;21.780;2022-08-03T04:35:23;25.42;60.14
63976;DHT22;50167;47.958;21.780;2022-08-03T04:37:50;25.53;59.84
63976;DHT22;50167;47.958;21.780;2022-08-03T04:40:26;25.67;59.65
63976;DHT22;50167;47.958;21.780;2022-08-03T04:42:49;25.81;59.42
63976;DHT22;50167;47.958;21.780;2022-08-03T04:45:17;25.43;56.02
63976;DHT22;50167;47.958;21.780;2022-08-03T04:47:43;24.56;54.73
63976;DHT22;50167;47.958;21.780;2022-08-03T04:50:10;23.73;59.74
63976;DHT22;50167;47.958;21.780;2022-08-03T04:52:36;23.02;57.64
63976;DHT22;50167;47.958;21.780;2022-08-03T04:55:04;22.52;57.26
63976;DHT22;50167;47.958;21.780;2022-08-03T04:57:30;22.10;57.68
63976;DHT22;50167;47.958;21.780;2022-08-03T04:59:55;21.76;58.14
63976;DHT22;50167;47.958;21.780;2022-08-03T05:02:22;22.07;67.07
63976;DHT22;50167;47.958;21.780;2022-08-03T05:04:48;23.30;69.70
63976;DHT22;50167;47.958;21.780;2022-08-03T05:07:15;24.15;67.29
63976;DHT22;50167;47.958;21.780;2022-08-03T05:09:42;24.60;65.99
63976;DHT22;50167;47.958;21.780;2022-08-03T05:12:08;24.87;64.37
63976;DHT22;50167;47.958;21.780;2022-08-03T05:14:34;24.97;63.99
63976;DHT22;50167;47.958;21.780;2022-08-03T05:17:05;25.18;62.88
63976;DHT22;50167;47.958;21.780;2022-08-03T05:19:32;25.30;62.31
63976;DHT22;50167;47.958;21.780;2022-08-03T05:21:58;25.49;61.47
63976;DHT22;50167;47.958;21.780;2022-08-03T05:24:24;25.60;60.76
63976;DHT22;50167;47.958;21.780;2022-08-03T05:26:50;25.72;60.62
63976;DHT22;50167;47.958;21.780;2022-08-03T05:29:16;25.88;59.92
63976;DHT22;50167;47.958;21.780;2022-08-03T05:31:41;26.04;59.26
63976;DHT22;50167;47.958;21.780;2022-08-03T05:34:07;25.56;55.51
63976;DHT22;50167;47.958;21.780;2022-08-03T05:36:33;24.88;55.16
63976;DHT22;50167;47.958;21.780;2022-08-03T05:38:59;24.32;58.15
63976;DHT22;50167;47.958;21.780;2022-08-03T05:41:25;23.94;59.69
63976;DHT22;50167;47.958;21.780;2022-08-03T05:43:52;24.20;64.62
63976;DHT22;50167;47.958;21.780;2022-08-03T05:46:18;25.23;64.79
63976;DHT22;50167;47.958;21.780;2022-08-03T05:48:45;25.90;61.47
63976;DHT22;50167;47.958;21.780;2022-08-03T05:51:11;26.32;61.12
63976;DHT22;50167;47.958;21.780;2022-08-03T05:53:41;26.56;59.05
63976;DHT22;50167;47.958;21.780;2022-08-03T05:56:08;26.21;55.05
63976;DHT22;50167;47.958;21.780;2022-08-03T05:58:34;25.63;54.87
63976;DHT22;50167;47.958;21.780;2022-08-03T06:01:00;25.17;58.25
63976;DHT22;50167;47.958;21.780;2022-08-03T06:03:26;24.90;62.11
63976;DHT22;50167;47.958;21.780;2022-08-03T06:05:53;25.18;64.22
63976;DHT22;50167;47.958;21.780;2022-08-03T06:08:21;26.27;63.78
63976;DHT22;50167;47.958;21.780;2022-08-03T06:10:48;26.99;60.99
63976;DHT22;50167;47.958;21.780;2022-08-03T06:13:14;27.30;55.91
63976;DHT22;50167;47.958;21.780;2022-08-03T06:15:40;26.67;57.92
63976;DHT22;50167;47.958;21.780;2022-08-03T06:18:07;26.01;58.34
63976;DHT22;50167;47.958;21.780;2022-08-03T06:20:33;25.59;60.71
63976;DHT22;50167;47.958;21.780;2022-08-03T06:22:59;25.25;58.65
63976;DHT22;50167;47.958;21.780;2022-08-03T06:25:25;25.09;61.26
63976;DHT22;50167;47.958;21.780;2022-08-03T06:27:51;25.04;63.07
63976;DHT22;50167;47.958;21.780;2022-08-03T06:30:17;26.14;61.88
63976;DHT22;50167;47.958;21.780;2022-08-03T06:32:43;26.97;58.93
63976;DHT22;50167;47.958;21.780;2022-08-03T06:35:09;27.01;55.83
63976;DHT22;50167;47.958;21.780;2022-08-03T06:37:46;26.51;56.91
63976;DHT22;50167;47.958;21.780;2022-08-03T06:40:14;26.14;54.33
63976;DHT22;50167;47.958;21.780;2022-08-03T06:42:40;25.93;60.10
63976;DHT22;50167;47.958;21.780;2022-08-03T06:45:07;25.76;60.42
63976;DHT22;50167;47.958;21.780;2022-08-03T06:47:37;25.63;60.12
63976;DHT22;50167;47.958;21.780;2022-08-03T06:50:07;25.59;60.20
63976;DHT22;50167;47.958;21.780;2022-08-03T06:52:33;25.59;61.28
63976;DHT22;50167;47.958;21.780;2022-08-03T06:54:59;25.59;59.22
63976;DHT22;50167;47.958;21.780;2022-08-03T06:57:25;25.62;57.24
63976;DHT22;50167;47.958;21.780;2022-08-03T06:59:51;25.69;58.60
63976;DHT22;50167;47.958;21.780;2022-08-03T07:02:17;25.76;60.69
63976;DHT22;50167;47.958;21.780;2022-08-03T07:04:43;25.77;60.70
63976;DHT22;50167;47.958;21.780;2022-08-03T07:07:09;25.81;59.80
63976;DHT22;50167;47.958;21.780;2022-08-03T07:09:35;25.88;58.92
63976;DHT22;50167;47.958;21.780;2022-08-03T07:12:02;25.94;60.36
63976;DHT22;50167;47.958;21.780;2022-08-03T07:14:28;26.00;60.16
63976;DHT22;50167;47.958;21.780;2022-08-03T07:16:54;26.11;59.26
63976;DHT22;50167;47.958;21.780;2022-08-03T07:19:21;26.21;58.57
63976;DHT22;50167;47.958;21.780;2022-08-03T07:21:46;26.34;59.66
63976;DHT22;50167;47.958;21.780;2022-08-03T07:24:12;26.43;59.06
63976;DHT22;50167;47.958;21.780;2022-08-03T07:26:39;26.52;58.25
63976;DHT22;50167;47.958;21.780;2022-08-03T07:29:04;26.64;57.98
63976;DHT22;50167;47.958;21.780;2022-08-03T07:31:30;26.67;58.07
63976;DHT22;50167;47.958;21.780;2022-08-03T07:33:56;26.74;57.27
63976;DHT22;50167;47.958;21.780;2022-08-03T07:36:22;26.79;56.84
63976;DHT22;50167;47.958;21.780;2022-08-03T07:38:49;26.82;55.70
63976;DHT22;50167;47.958;21.780;2022-08-03T07:41:15;26.85;56.19
63976;DHT22;50167;47.958;21.780;2022-08-03T07:43:41;26.91;55.14
63976;DHT22;50167;47.958;21.780;2022-08-03T07:46:07;26.97;55.26
63976;DHT22;50167;47.958;21.780;2022-08-03T07:48:33;27.07;55.48
63976;DHT22;50167;47.958;21.780;2022-08-03T07:50:58;27.17;55.17
63976;DHT22;50167;47.958;21.780;2022-08-03T07:53:24;27.30;55.55
63976;DHT22;50167;47.958;21.780;2022-08-03T07:55:50;27.45;55.64
63976;DHT22;50167;47.958;21.780;2022-08-03T07:58:16;27.57;55.13
63976;DHT22;50167;47.958;21.780;2022-08-03T08:00:42;27.64;55.08
63976;DHT22;50167;47.958;21.780;2022-08-03T08:03:09;27.77;55.16
63976;DHT22;50167;47.958;21.780;2022-08-03T08:05:35;27.86;54.73
63976;DHT22;50167;47.958;21.780;2022-08-03T08:08:02;27.96;53.67
63976;DHT22;50167;47.958;21.780;2022-08-03T08:10:28;28.02;52.78
63976;DHT22;50167;47.958;21.780;2022-08-03T08:12:55;28.10;53.13
63976;DHT22;50167;47.958;21.780;2022-08-03T08:15:21;28.17;51.98
63976;DHT22;50167;47.958;21.780;2022-08-03T08:17:50;28.20;51.97
63976;DHT22;50167;47.958;21.780;2022-08-03T08:20:20;28.24;52.37
63976;DHT22;50167;47.958;21.780;2022-08-03T08:22:46;28.31;51.67
63976;DHT22;50167;47.958;21.780;2022-08-03T08:25:12;28.40;51.16
63976;DHT22;50167;47.958;21.780;2022-08-03T08:27:46;28.45;51.52
63976;DHT22;50167;47.958;21.780;2022-08-03T08:30:14;28.58;51.36
63976;DHT22;50167;47.958;21.780;2022-08-03T08:32:41;28.71;50.48
63976;DHT22;50167;47.958;21.780;2022-08-03T08:35:08;28.79;50.15
63976;DHT22;50167;47.958;21.780;2022-08-03T08:37:34;28.89;50.04
63976;DHT22;50167;47.958;21.780;2022-08-03T08:40:00;28.95;49.35
63976;DHT22;50167;47.958;21.780;2022-08-03T08:42:26;28.99;48.96
63976;DHT22;50167;47.958;21.780;2022-08-03T08:44:52;29.05;49.30
63976;DHT22;50167;47.958;21.780;2022-08-03T08:47:19;29.14;49.35
63976;DHT22;50167;47.958;21.780;2022-08-03T08:49:47;29.27;49.22
63976;DHT22;50167;47.958;21.780;2022-08-03T08:52:14;29.38;48.67
63976;DHT22;50167;47.958;21.780;2022-08-03T08:54:41;29.53;48.20
63976;DHT22;50167;47.958;21.780;2022-08-03T08:57:09;29.65;48.31
63976;DHT22;50167;47.958;21.780;2022-08-03T08:59:35;29.81;47.30
63976;DHT22;50167;47.958;21.780;2022-08-03T09:02:01;29.92;47.03
63976;DHT22;50167;47.958;21.780;2022-08-03T09:04:28;30.02;47.28
63976;DHT22;50167;47.958;21.780;2022-08-03T09:06:55;30.12;46.45
63976;DHT22;50167;47.958;21.780;2022-08-03T09:09:21;30.25;45.82
63976;DHT22;50167;47.958;21.780;2022-08-03T09:11:47;30.39;46.77
63976;DHT22;50167;47.958;21.780;2022-08-03T09:14:14;30.44;46.74
63976;DHT22;50167;47.958;21.780;2022-08-03T09:16:57;30.54;46.02
63976;DHT22;50167;47.958;21.780;2022-08-03T09:19:30;30.60;46.15
63976;DHT22;50167;47.958;21.780;2022-08-03T09:22:11;30.67;46.21
63976;DHT22;50167;47.958;21.780;2022-08-03T09:24:38;30.81;45.80
63976;DHT22;50167;47.958;21.780;2022-08-03T09:27:06;30.95;45.78
63976;DHT22;50167;47.958;21.780;2022-08-03T09:29:34;31.07;45.54
63976;DHT22;50167;47.958;21.780;2022-08-03T09:32:02;31.12;45.03
63976;DHT22;50167;47.958;21.780;2022-08-03T09:34:29;31.11;42.64
63976;DHT22;50167;47.958;21.780;2022-08-03T09:36:55;31.11;43.31
63976;DHT22;50167;47.958;21.780;2022-08-03T09:39:25;31.15;43.84
63976;DHT22;50167;47.958;21.780;2022-08-03T09:42:15;31.25;43.20
63976;DHT22;50167;47.958;21.780;2022-08-03T09:44:47;31.40;42.54
63976;DHT22;50167;47.958;21.780;2022-08-03T09:47:16;31.38;43.06
63976;DHT22;50167;47.958;21.780;2022-08-03T09:49:55;31.38;41.82
63976;DHT22;50167;47.958;21.780;2022-08-03T09:52:17;31.40;42.17
63976;DHT22;50167;47.958;21.780;2022-08-03T09:54:51;31.54;42.54
63976;DHT22;50167;47.958;21.780;2022-08-03T09:57:23;31.65;41.83
63976;DHT22;50167;47.958;21.780;2022-08-03T09:59:50;31.72;41.35
63976;DHT22;50167;47.958;21.780;2022-08-03T10:02:22;31.83;41.35
63976;DHT22;50167;47.958;21.780;2022-08-03T10:04:49;31.87;41.17
63976;DHT22;50167;47.958;21.780;2022-08-03T10:07:22;31.88;40.36
63976;DHT22;50167;47.958;21.780;2022-08-03T10:09:59;31.86;40.35
63976;DHT22;50167;47.958;21.780;2022-08-03T10:12:27;31.88;39.97
63976;DHT22;50167;47.958;21.780;2022-08-03T10:14:53;31.93;40.33
63976;DHT22;50167;47.958;21.780;2022-08-03T10:17:21;31.94;40.36
63976;DHT22;50167;47.958;21.780;2022-08-03T10:19:47;32.00;39.63
63976;DHT22;50167;47.958;21.780;2022-08-03T10:22:27;31.94;38.21
63976;DHT22;50167;47.958;21.780;2022-08-03T10:25:06;31.86;37.86
63976;DHT22;50167;47.958;21.780;2022-08-03T10:27:37;31.76;36.81
63976;DHT22;50167;47.958;21.780;2022-08-03T10:30:06;31.63;38.12
63976;DHT22;50167;47.958;21.780;2022-08-03T10:32:41;31.72;38.57
63976;DHT22;50167;47.958;21.780;2022-08-03T10:35:15;31.86;37.81
63976;DHT22;50167;47.958;21.780;2022-08-03T10:37:48;32.00;38.50
63976;DHT22;50167;47.958;21.780;2022-08-03T10:40:15;32.07;38.75
63976;DHT22;50167;47.958;21.780;2022-08-03T10:42:45;32.14;38.11
63976;DHT22;50167;47.958;21.780;2022-08-03T10:45:21;32.13;37.44
63976;DHT22;50167;47.958;21.780;2022-08-03T10:47:48;31.86;36.83
63976;DHT22;50167;47.958;21.780;2022-08-03T10:50:15;31.70;37.55
63976;DHT22;50167;47.958;21.780;2022-08-03T10:52:57;31.76;37.63
63976;DHT22;50167;47.958;21.780;2022-08-03T11:01:08;32.07;37.15
63976;DHT22;50167;47.958;21.780;2022-08-03T11:06:23;32.22;36.04
63976;DHT22;50167;47.958;21.780;2022-08-03T11:11:41;32.34;35.09
63976;DHT22;50167;47.958;21.780;2022-08-03T11:14:19;32.28;35.14
63976;DHT22;50167;47.958;21.780;2022-08-03T11:16:43;32.27;35.91
63976;DHT22;50167;47.958;21.780;2022-08-03T11:19:14;32.34;35.48
63976;DHT22;50167;47.958;21.780;2022-08-03T11:27:19;32.59;36.25
63976;DHT22;50167;47.958;21.780;2022-08-03T11:30:04;32.75;36.00
63976;DHT22;50167;47.958;21.780;2022-08-03T11:40:41;32.97;35.08
63976;DHT22;50167;47.958;21.780;2022-08-03T11:46:05;33.30;35.44
63976;DHT22;50167;47.958;21.780;2022-08-03T11:48:37;33.36;35.05
63976;DHT22;50167;47.958;21.780;2022-08-03T11:51:04;33.38;34.93
63976;DHT22;50167;47.958;21.780;2022-08-03T11:53:31;33.45;35.11
63976;DHT22;50167;47.958;21.780;2022-08-03T11:56:01;33.47;33.48
63976;DHT22;50167;47.958;21.780;2022-08-03T11:58:27;33.44;33.73
63976;DHT22;50167;47.958;21.780;2022-08-03T12:01:06;33.44;33.59
63976;DHT22;50167;47.958;21.780;2022-08-03T12:03:33;33.43;34.15
63976;DHT22;50167;47.958;21.780;2022-08-03T12:05:59;33.48;33.59
63976;DHT22;50167;47.958;21.780;2022-08-03T12:08:31;33.51;33.92
63976;DHT22;50167;47.958;21.780;2022-08-03T12:10:59;33.57;33.73
63976;DHT22;50167;47.958;21.780;2022-08-03T12:13:25;33.60;33.08
63976;DHT22;50167;47.958;21.780;2022-08-03T12:15:53;33.61;32.30
63976;DHT22;50167;47.958;21.780;2022-08-03T12:18:20;33.60;32.98
63976;DHT22;50167;47.958;21.780;2022-08-03T12:20:48;33.67;33.45
63976;DHT22;50167;47.958;21.780;2022-08-03T12:23:14;33.75;33.24
63976;DHT22;50167;47.958;21.780;2022-08-03T12:25:42;33.78;32.84
63976;DHT22;50167;47.958;21.780;2022-08-03T12:28:16;33.76;32.82
63976;DHT22;50167;47.958;21.780;2022-08-03T12:30:46;33.65;32.74
63976;DHT22;50167;47.958;21.780;2022-08-03T12:33:24;33.64;32.52
63976;DHT22;50167;47.958;21.780;2022-08-03T12:38:30;33.53;32.54
63976;DHT22;50167;47.958;21.780;2022-08-03T12:40:58;33.50;32.62
63976;DHT22;50167;47.958;21.780;2022-08-03T12:43:25;33.64;32.33
63976;DHT22;50167;47.958;21.780;2022-08-03T12:46:05;33.96;31.59
63976;DHT22;50167;47.958;21.780;2022-08-03T12:48:19;34.37;31.64
63976;DHT22;50167;47.958;21.780;2022-08-03T12:50:44;34.85;30.51
63976;DHT22;50167;47.958;21.780;2022-08-03T12:53:10;35.25;30.93
63976;DHT22;50167;47.958;21.780;2022-08-03T12:55:37;35.69;30.50
63976;DHT22;50167;47.958;21.780;2022-08-03T12:58:05;35.96;30.45
63976;DHT22;50167;47.958;21.780;2022-08-03T13:00:31;36.42;29.89
63976;DHT22;50167;47.958;21.780;2022-08-03T13:03:05;37.08;29.14
63976;DHT22;50167;47.958;21.780;2022-08-03T13:05:42;37.31;28.91
63976;DHT22;50167;47.958;21.780;2022-08-03T13:08:23;37.29;28.60
63976;DHT22;50167;47.958;21.780;2022-08-03T13:10:49;37.12;28.32
63976;DHT22;50167;47.958;21.780;2022-08-03T13:13:15;37.03;28.81
63976;DHT22;50167;47.958;21.780;2022-08-03T13:15:41;37.38;28.87
63976;DHT22;50167;47.958;21.780;2022-08-03T13:18:08;37.75;27.37
63976;DHT22;50167;47.958;21.780;2022-08-03T13:20:34;37.74;27.43
63976;DHT22;50167;47.958;21.780;2022-08-03T13:23:01;37.20;28.00
63976;DHT22;50167;47.958;21.780;2022-08-03T13:25:26;36.54;28.05
63976;DHT22;50167;47.958;21.780;2022-08-03T13:27:52;35.89;28.94
63976;DHT22;50167;47.958;21.780;2022-08-03T13:30:18;35.41;29.06
63976;DHT22;50167;47.958;21.780;2022-08-03T13:32:44;35.05;29.60
63976;DHT22;50167;47.958;21.780;2022-08-03T13:35:10;34.81;29.49
63976;DHT22;50167;47.958;21.780;2022-08-03T13:37:36;34.70;29.91
63976;DHT22;50167;47.958;21.780;2022-08-03T13:40:04;34.75;30.42
63976;DHT22;50167;47.958;21.780;2022-08-03T13:42:32;35.19;31.00
63976;DHT22;50167;47.958;21.780;2022-08-03T13:44:58;35.94;30.82
63976;DHT22;50167;47.958;21.780;2022-08-03T13:47:25;36.85;30.11
63976;DHT22;50167;47.958;21.780;2022-08-03T13:49:52;37.10;29.67
63976;DHT22;50167;47.958;21.780;2022-08-03T13:52:18;37.31;29.59
63976;DHT22;50167;47.958;21.780;2022-08-03T13:54:44;37.82;29.48
63976;DHT22;50167;47.958;21.780;2022-08-03T13:57:10;38.11;28.12
63976;DHT22;50167;47.958;21.780;2022-08-03T13:59:36;37.85;27.86
63976;DHT22;50167;47.958;21.780;2022-08-03T14:02:03;37.27;28.11
63976;DHT22;50167;47.958;21.780;2022-08-03T14:04:29;36.66;28.42
63976;DHT22;50167;47.958;21.780;2022-08-03T14:06:55;36.16;28.80
63976;DHT22;50167;47.958;21.780;2022-08-03T14:09:21;35.96;29.27
63976;DHT22;50167;47.958;21.780;2022-08-03T14:11:47;36.00;29.23
63976;DHT22;50167;47.958;21.780;2022-08-03T14:14:13;35.89;29.42
63976;DHT22;50167;47.958;21.780;2022-08-03T14:16:39;35.69;29.52
63976;DHT22;50167;47.958;21.780;2022-08-03T14:19:06;35.49;29.49
63976;DHT22;50167;47.958;21.780;2022-08-03T14:21:33;35.32;30.03
63976;DHT22;50167;47.958;21.780;2022-08-03T14:23:59;35.05;30.21
63976;DHT22;50167;47.958;21.780;2022-08-03T14:26:25;34.91;30.55
63976;DHT22;50167;47.958;21.780;2022-08-03T14:28:51;35.00;30.82
63976;DHT22;50167;47.958;21.780;2022-08-03T14:31:17;35.43;30.71
63976;DHT22;50167;47.958;21.780;2022-08-03T14:33:43;35.84;30.37
63976;DHT22;50167;47.958;21.780;2022-08-03T14:36:09;36.73;29.75
63976;DHT22;50167;47.958;21.780;2022-08-03T14:38:35;37.77;29.05
63976;DHT22;50167;47.958;21.780;2022-08-03T14:41:00;38.71;28.12
63976;DHT22;50167;47.958;21.780;2022-08-03T14:43:26;39.55;27.12
63976;DHT22;50167;47.958;21.780;2022-08-03T14:45:52;40.37;27.15
63976;DHT22;50167;47.958;21.780;2022-08-03T14:48:19;40.96;25.72
63976;DHT22;50167;47.958;21.780;2022-08-03T14:50:46;41.41;24.80
63976;DHT22;50167;47.958;21.780;2022-08-03T14:53:11;41.60;24.38
63976;DHT22;50167;47.958;21.780;2022-08-03T14:55:38;41.80;24.82
63976;DHT22;50167;47.958;21.780;2022-08-03T14:58:04;42.05;23.91
63976;DHT22;50167;47.958;21.780;2022-08-03T15:00:34;42.20;23.92
63976;DHT22;50167;47.958;21.780;2022-08-03T15:03:01;42.29;23.69
63976;DHT22;50167;47.958;21.780;2022-08-03T15:05:27;42.19;23.72
63976;DHT22;50167;47.958;21.780;2022-08-03T15:07:53;41.98;22.44
63976;DHT22;50167;47.958;21.780;2022-08-03T15:10:19;41.88;22.37
63976;DHT22;50167;47.958;21.780;2022-08-03T15:12:45;41.71;23.64
63976;DHT22;50167;47.958;21.780;2022-08-03T15:15:11;41.51;24.03
63976;DHT22;50167;47.958;21.780;2022-08-03T15:17:37;40.92;24.09
63976;DHT22;50167;47.958;21.780;2022-08-03T15:20:04;40.27;24.09
63976;DHT22;50167;47.958;21.780;2022-08-03T15:22:30;39.65;24.39
63976;DHT22;50167;47.958;21.780;2022-08-03T15:24:57;39.11;24.48
63976;DHT22;50167;47.958;21.780;2022-08-03T15:27:22;38.66;24.79
63976;DHT22;50167;47.958;21.780;2022-08-03T15:29:48;38.54;25.31
63976;DHT22;50167;47.958;21.780;2022-08-03T15:32:14;38.64;25.22
63976;DHT22;50167;47.958;21.780;2022-08-03T15:34:41;38.47;24.83
63976;DHT22;50167;47.958;21.780;2022-08-03T15:37:07;38.30;25.19
63976;DHT22;50167;47.958;21.780;2022-08-03T15:39:32;38.43;25.02
63976;DHT22;50167;47.958;21.780;2022-08-03T15:41:58;38.82;25.18
63976;DHT22;50167;47.958;21.780;2022-08-03T15:44:24;38.90;24.64
63976;DHT22;50167;47.958;21.780;2022-08-03T15:46:51;38.50;24.41
63976;DHT22;50167;47.958;21.780;2022-08-03T15:49:17;37.91;24.27
63976;DHT22;50167;47.958;21.780;2022-08-03T15:51:45;37.24;24.89
63976;DHT22;50167;47.958;21.780;2022-08-03T15:54:11;36.52;25.48
63976;DHT22;50167;47.958;21.780;2022-08-03T15:56:37;35.90;25.95
63976;DHT22;50167;47.958;21.780;2022-08-03T15:59:03;35.25;26.28
63976;DHT22;50167;47.958;21.780;2022-08-03T16:01:29;34.63;26.57
63976;DHT22;50167;47.958;21.780;2022-08-03T16:03:55;34.08;27.22